sensor_id;sensor_type;location;lat;lon;timestamp;pressure;altitude;pressure_sealevel;temperature
76381;BMP280;65202;52.520;10.528;2023-06-19T00:01:09;100573.00;;;22.54
76381;BMP280;65202;52.520;10.528;2023-06-19T00:03:36;100568.00;;;22.42
76381;BMP280;65202;52.520;10.528;2023-06-19T00:06:05;100573.19;;;22.29
76381;BMP280;65202;52.520;10.528;2023-06-19T00:08:33;100569.75;;;22.25
76381;BMP280;65202;52.520;10.528;2023-06-19T00:11:00;100560.28;;;22.51
76381;BMP280;65202;52.520;10.528;2023-06-19T00:13:27;100562.81;;;22.53
76381;BMP280;65202;52.520;10.528;2023-06-19T00:15:54;100569.78;;;22.28
76381;BMP280;65202;52.520;10.528;2023-06-19T00:18:22;100567.00;;;22.60
76381;BMP280;65202;52.520;10.528;2023-06-19T00:20:49;100563.75;;;22.38
76381;BMP280;65202;52.520;10.528;2023-06-19T00:23:17;100563.81;;;22.29
76381;BMP280;65202;52.520;10.528;2023-06-19T00:25:44;100560.34;;;22.39
76381;BMP280;65202;52.520;10.528;2023-06-19T00:28:12;100563.06;;;22.08
76381;BMP280;65202;52.520;10.528;2023-06-19T00:30:41;100559.75;;;21.93
76381;BMP280;65202;52.520;10.528;2023-06-19T00:33:08;100556.38;;;21.85
76381;BMP280;65202;52.520;10.528;2023-06-19T00:35:36;100558.88;;;21.95
76381;BMP280;65202;52.520;10.528;2023-06-19T00:38:05;100562.28;;;21.97
76381;BMP280;65202;52.520;10.528;2023-06-19T00:40:34;100548.69;;;22.00
76381;BMP280;65202;52.520;10.528;2023-06-19T00:43:02;100557.91;;;22.18
76381;BMP280;65202;52.520;10.528;2023-06-19T00:45:29;100551.06;;;22.25
76381;BMP280;65202;52.520;10.528;2023-06-19T00:47:57;100557.91;;;22.18
76381;BMP280;65202;52.520;10.528;2023-06-19T00:50:28;100558.09;;;21.83
76381;BMP280;65202;52.520;10.528;2023-06-19T00:52:58;100559.66;;;22.05
76381;BMP280;65202;52.520;10.528;2023-06-19T00:55:28;100546.16;;;21.91
76381;BMP280;65202;52.520;10.528;2023-06-19T00:58:00;100545.25;;;21.99
76381;BMP280;65202;52.520;10.528;2023-06-19T01:00:28;100543.59;;;21.89
76381;BMP280;65202;52.520;10.528;2023-06-19T01:02:55;100545.22;;;22.02
76381;BMP280;65202;52.520;10.528;2023-06-19T01:05:23;100530.91;;;21.76
76381;BMP280;65202;52.520;10.528;2023-06-19T01:07:59;100526.50;;;22.11
76381;BMP280;65202;52.520;10.528;2023-06-19T01:10:43;100526.59;;;21.97
76381;BMP280;65202;52.520;10.528;2023-06-19T01:13:27;100518.81;;;22.17
76381;BMP280;65202;52.520;10.528;2023-06-19T01:16:02;100519.06;;;21.75
76381;BMP280;65202;52.520;10.528;2023-06-19T01:18:31;100518.22;;;21.71
76381;BMP280;65202;52.520;10.528;2023-06-19T01:21:13;100505.50;;;21.70
76381;BMP280;65202;52.520;10.528;2023-06-19T01:23:45;100500.38;;;21.67
76381;BMP280;65202;52.520;10.528;2023-06-19T01:26:13;100500.34;;;21.79
76381;BMP280;65202;52.520;10.528;2023-06-19T01:28:41;100497.03;;;21.59
76381;BMP280;65202;52.520;10.528;2023-06-19T01:31:13;100501.31;;;21.54
76381;BMP280;65202;52.520;10.528;2023-06-19T01:33:47;100494.31;;;21.92
76381;BMP280;65202;52.520;10.528;2023-06-19T01:36:20;100494.38;;;21.81
76381;BMP280;65202;52.520;10.528;2023-06-19T01:38:49;100485.72;;;22.11
76381;BMP280;65202;52.520;10.528;2023-06-19T01:41:19;100488.38;;;21.94
76381;BMP280;65202;52.520;10.528;2023-06-19T01:43:47;100478.28;;;21.75
76381;BMP280;65202;52.520;10.528;2023-06-19T01:46:16;100478.19;;;21.93
76381;BMP280;65202;52.520;10.528;2023-06-19T01:48:43;100479.22;;;21.54
76381;BMP280;65202;52.520;10.528;2023-06-19T01:51:10;100475.50;;;22.12
76381;BMP280;65202;52.520;10.528;2023-06-19T01:53:38;100474.63;;;22.15
76381;BMP280;65202;52.520;10.528;2023-06-19T01:56:05;100461.13;;;22.04
76381;BMP280;65202;52.520;10.528;2023-06-19T01:58:33;100470.41;;;22.15
76381;BMP280;65202;52.520;10.528;2023-06-19T02:01:01;100462.84;;;21.96
76381;BMP280;65202;52.520;10.528;2023-06-19T02:03:28;100469.75;;;21.82
76381;BMP280;65202;52.520;10.528;2023-06-19T02:05:55;100470.69;;;21.64
76381;BMP280;65202;52.520;10.528;2023-06-19T02:08:22;100464.59;;;21.91
76381;BMP280;65202;52.520;10.528;2023-06-19T02:10:49;100465.59;;;21.66
76381;BMP280;65202;52.520;10.528;2023-06-19T02:13:17;100471.50;;;21.74
76381;BMP280;65202;52.520;10.528;2023-06-19T02:15:44;100468.13;;;21.63
76381;BMP280;65202;52.520;10.528;2023-06-19T02:18:11;100475.81;;;21.48
76381;BMP280;65202;52.520;10.528;2023-06-19T02:20:38;100462.97;;;21.82
76381;BMP280;65202;52.520;10.528;2023-06-19T02:23:06;100468.13;;;21.69
76381;BMP280;65202;52.520;10.528;2023-06-19T02:25:33;100473.28;;;21.54
76381;BMP280;65202;52.520;10.528;2023-06-19T02:28:02;100466.34;;;21.78
76381;BMP280;65202;52.520;10.528;2023-06-19T02:30:30;100468.16;;;21.66
76381;BMP280;65202;52.520;10.528;2023-06-19T02:32:57;100463.97;;;21.38
76381;BMP280;65202;52.520;10.528;2023-06-19T02:35:24;100473.13;;;21.87
76381;BMP280;65202;52.520;10.528;2023-06-19T02:37:52;100466.50;;;21.53
76381;BMP280;65202;52.520;10.528;2023-06-19T02:40:19;100468.94;;;21.75
76381;BMP280;65202;52.520;10.528;2023-06-19T02:42:46;100472.25;;;21.94
76381;BMP280;65202;52.520;10.528;2023-06-19T02:45:14;100479.06;;;21.84
76381;BMP280;65202;52.520;10.528;2023-06-19T02:47:42;100480.81;;;21.82
76381;BMP280;65202;52.520;10.528;2023-06-19T02:50:09;100480.81;;;21.82
76381;BMP280;65202;52.520;10.528;2023-06-19T02:52:37;100474.81;;;21.88
76381;BMP280;65202;52.520;10.528;2023-06-19T02:55:04;100473.22;;;21.64
76381;BMP280;65202;52.520;10.528;2023-06-19T02:57:34;100464.66;;;21.76
76381;BMP280;65202;52.520;10.528;2023-06-19T03:00:02;100463.06;;;21.60
76381;BMP280;65202;52.520;10.528;2023-06-19T03:02:30;100449.50;;;21.49
76381;BMP280;65202;52.520;10.528;2023-06-19T03:04:57;100450.53;;;20.96
76381;BMP280;65202;52.520;10.528;2023-06-19T03:07:24;100445.34;;;21.30
76381;BMP280;65202;52.520;10.528;2023-06-19T03:09:55;100444.50;;;21.31
76381;BMP280;65202;52.520;10.528;2023-06-19T03:12:22;100455.41;;;21.61
76381;BMP280;65202;52.520;10.528;2023-06-19T03:14:49;100453.66;;;21.74
76381;BMP280;65202;52.520;10.528;2023-06-19T03:17:16;100456.28;;;21.59
76381;BMP280;65202;52.520;10.528;2023-06-19T03:19:44;100460.53;;;21.54
76381;BMP280;65202;52.520;10.528;2023-06-19T03:22:11;100448.66;;;21.52
76381;BMP280;65202;52.520;10.528;2023-06-19T03:24:38;100454.63;;;21.46
76381;BMP280;65202;52.520;10.528;2023-06-19T03:27:06;100449.47;;;21.64
76381;BMP280;65202;52.520;10.528;2023-06-19T03:29:33;100446.00;;;21.74
76381;BMP280;65202;52.520;10.528;2023-06-19T03:32:00;100446.13;;;21.56
76381;BMP280;65202;52.520;10.528;2023-06-19T03:34:27;100447.63;;;21.87
76381;BMP280;65202;52.520;10.528;2023-06-19T03:36:55;100446.84;;;21.76
76381;BMP280;65202;52.520;10.528;2023-06-19T03:39:22;100437.56;;;21.66
76381;BMP280;65202;52.520;10.528;2023-06-19T03:41:49;100446.97;;;21.54
76381;BMP280;65202;52.520;10.528;2023-06-19T03:44:16;100442.72;;;21.54
76381;BMP280;65202;52.520;10.528;2023-06-19T03:46:44;100450.34;;;21.57
76381;BMP280;65202;52.520;10.528;2023-06-19T03:49:11;100445.19;;;21.69
76381;BMP280;65202;52.520;10.528;2023-06-19T03:51:38;100437.56;;;21.63
76381;BMP280;65202;52.520;10.528;2023-06-19T03:54:05;100444.38;;;21.58
76381;BMP280;65202;52.520;10.528;2023-06-19T03:56:33;100451.13;;;21.71
76381;BMP280;65202;52.520;10.528;2023-06-19T03:59:00;100464.69;;;21.73
76381;BMP280;65202;52.520;10.528;2023-06-19T04:01:27;100467.16;;;21.89
76381;BMP280;65202;52.520;10.528;2023-06-19T04:03:54;100474.78;;;21.89
76381;BMP280;65202;52.520;10.528;2023-06-19T04:06:22;100471.28;;;22.07
76381;BMP280;65202;52.520;10.528;2023-06-19T04:08:49;100481.72;;;21.62
76381;BMP280;65202;52.520;10.528;2023-06-19T04:11:17;100476.50;;;21.86
76381;BMP280;65202;52.520;10.528;2023-06-19T04:13:44;100489.19;;;21.98
76381;BMP280;65202;52.520;10.528;2023-06-19T04:16:11;100490.84;;;22.05
76381;BMP280;65202;52.520;10.528;2023-06-19T04:18:38;100492.56;;;22.03
76381;BMP280;65202;52.520;10.528;2023-06-19T04:21:06;100490.88;;;22.02
76381;BMP280;65202;52.520;10.528;2023-06-19T04:23:33;100495.06;;;22.12
76381;BMP280;65202;52.520;10.528;2023-06-19T04:26:00;100502.78;;;22.01
76381;BMP280;65202;52.520;10.528;2023-06-19T04:28:28;100499.50;;;21.75
76381;BMP280;65202;52.520;10.528;2023-06-19T04:30:56;100502.16;;;21.38
76381;BMP280;65202;52.520;10.528;2023-06-19T04:33:28;100510.56;;;21.67
76381;BMP280;65202;52.520;10.528;2023-06-19T04:35:56;100516.44;;;21.90
76381;BMP280;65202;52.520;10.528;2023-06-19T04:38:23;100511.59;;;20.94
76381;BMP280;65202;52.520;10.528;2023-06-19T04:40:51;100489.44;;;21.41
76381;BMP280;65202;52.520;10.528;2023-06-19T04:43:19;100489.50;;;21.22
76381;BMP280;65202;52.520;10.528;2023-06-19T04:45:46;100491.22;;;21.02
76381;BMP280;65202;52.520;10.528;2023-06-19T04:48:14;100487.03;;;20.79
76381;BMP280;65202;52.520;10.528;2023-06-19T04:50:41;100487.00;;;21.02
76381;BMP280;65202;52.520;10.528;2023-06-19T04:53:08;100472.59;;;20.40
76381;BMP280;65202;52.520;10.528;2023-06-19T04:55:36;100455.56;;;21.21
76381;BMP280;65202;52.520;10.528;2023-06-19T04:58:04;100454.75;;;21.01
76381;BMP280;65202;52.520;10.528;2023-06-19T05:00:31;100459.78;;;21.21
76381;BMP280;65202;52.520;10.528;2023-06-19T05:02:59;100457.28;;;21.10
76381;BMP280;65202;52.520;10.528;2023-06-19T05:05:28;100462.38;;;21.03
76381;BMP280;65202;52.520;10.528;2023-06-19T05:07:55;100481.91;;;21.04
76381;BMP280;65202;52.520;10.528;2023-06-19T05:10:22;100473.47;;;20.80
76381;BMP280;65202;52.520;10.528;2023-06-19T05:12:50;100487.03;;;20.55
76381;BMP280;65202;52.520;10.528;2023-06-19T05:15:17;100487.00;;;20.96
76381;BMP280;65202;52.520;10.528;2023-06-19T05:17:44;100480.25;;;20.84
76381;BMP280;65202;52.520;10.528;2023-06-19T05:20:13;100475.09;;;21.15
76381;BMP280;65202;52.520;10.528;2023-06-19T05:22:41;100482.75;;;21.03
76381;BMP280;65202;52.520;10.528;2023-06-19T05:25:08;100482.75;;;20.33
76381;BMP280;65202;52.520;10.528;2023-06-19T05:27:36;100483.63;;;20.91
76381;BMP280;65202;52.520;10.528;2023-06-19T05:30:04;100495.47;;;20.63
76381;BMP280;65202;52.520;10.528;2023-06-19T05:32:32;100493.78;;;20.59
76381;BMP280;65202;52.520;10.528;2023-06-19T05:34:59;100496.34;;;20.51
76381;BMP280;65202;52.520;10.528;2023-06-19T05:37:26;100505.63;;;20.33
76381;BMP280;65202;52.520;10.528;2023-06-19T05:39:54;100507.34;;;20.34
76381;BMP280;65202;52.520;10.528;2023-06-19T05:42:21;100499.72;;;20.71
76381;BMP280;65202;52.520;10.528;2023-06-19T05:44:48;100504.81;;;20.59
76381;BMP280;65202;52.520;10.528;2023-06-19T05:47:16;100516.69;;;21.12
76381;BMP280;65202;52.520;10.528;2023-06-19T05:49:44;100503.91;;;21.27
76381;BMP280;65202;52.520;10.528;2023-06-19T05:52:12;100522.56;;;21.23
76381;BMP280;65202;52.520;10.528;2023-06-19T05:54:39;100519.16;;;21.30
76381;BMP280;65202;52.520;10.528;2023-06-19T05:57:07;100526.88;;;20.96
76381;BMP280;65202;52.520;10.528;2023-06-19T05:59:34;100536.13;;;21.34
76381;BMP280;65202;52.520;10.528;2023-06-19T06:02:01;100539.59;;;21.00
76381;BMP280;65202;52.520;10.528;2023-06-19T06:04:30;100539.59;;;20.91
76381;BMP280;65202;52.520;10.528;2023-06-19T06:06:57;100536.22;;;20.94
76381;BMP280;65202;52.520;10.528;2023-06-19T06:09:24;100541.28;;;21.16
76381;BMP280;65202;52.520;10.528;2023-06-19T06:11:52;100561.59;;;21.55
76381;BMP280;65202;52.520;10.528;2023-06-19T06:14:19;100565.03;;;21.06
76381;BMP280;65202;52.520;10.528;2023-06-19T06:16:46;100567.53;;;21.26
76381;BMP280;65202;52.520;10.528;2023-06-19T06:19:14;100560.81;;;21.10
76381;BMP280;65202;52.520;10.528;2023-06-19T06:21:41;100565.06;;;20.90
76381;BMP280;65202;52.520;10.528;2023-06-19T06:24:08;100578.53;;;20.43
76381;BMP280;65202;52.520;10.528;2023-06-19T06:26:35;100574.38;;;21.04
76381;BMP280;65202;52.520;10.528;2023-06-19T06:29:03;100576.88;;;21.37
76381;BMP280;65202;52.520;10.528;2023-06-19T06:31:31;100576.00;;;21.44
76381;BMP280;65202;52.520;10.528;2023-06-19T06:33:58;100562.47;;;20.50
76381;BMP280;65202;52.520;10.528;2023-06-19T06:36:25;100546.34;;;20.51
76381;BMP280;65202;52.520;10.528;2023-06-19T06:39:03;100543.81;;;20.58
76381;BMP280;65202;52.520;10.528;2023-06-19T06:41:31;100548.94;;;20.84
76381;BMP280;65202;52.520;10.528;2023-06-19T06:43:58;100542.09;;;20.53
76381;BMP280;65202;52.520;10.528;2023-06-19T06:46:25;100542.13;;;20.72
76381;BMP280;65202;52.520;10.528;2023-06-19T06:48:53;100536.22;;;20.75
76381;BMP280;65202;52.520;10.528;2023-06-19T06:51:20;100549.72;;;21.30
76381;BMP280;65202;52.520;10.528;2023-06-19T06:53:50;100542.03;;;21.57
76381;BMP280;65202;52.520;10.528;2023-06-19T06:56:17;100547.25;;;20.90
76381;BMP280;65202;52.520;10.528;2023-06-19T06:58:45;100527.72;;;20.88
76381;BMP280;65202;52.520;10.528;2023-06-19T07:01:13;100537.94;;;20.85
76381;BMP280;65202;52.520;10.528;2023-06-19T07:03:41;100534.50;;;21.12
76381;BMP280;65202;52.520;10.528;2023-06-19T07:06:08;100540.44;;;21.10
76381;BMP280;65202;52.520;10.528;2023-06-19T07:08:35;100537.84;;;21.29
76381;BMP280;65202;52.520;10.528;2023-06-19T07:11:03;100536.94;;;21.50
76381;BMP280;65202;52.520;10.528;2023-06-19T07:13:30;100531.88;;;21.58
76381;BMP280;65202;52.520;10.528;2023-06-19T07:15:57;100536.03;;;21.73
76381;BMP280;65202;52.520;10.528;2023-06-19T07:18:26;100536.00;;;21.86
76381;BMP280;65202;52.520;10.528;2023-06-19T07:20:53;100536.00;;;21.76
76381;BMP280;65202;52.520;10.528;2023-06-19T07:23:20;100540.19;;;21.92
76381;BMP280;65202;52.520;10.528;2023-06-19T07:25:48;100540.81;;;22.41
76381;BMP280;65202;52.520;10.528;2023-06-19T07:28:15;100537.50;;;22.27
76381;BMP280;65202;52.520;10.528;2023-06-19T07:30:42;100553.59;;;22.35
76381;BMP280;65202;52.520;10.528;2023-06-19T07:33:11;100549.91;;;22.71
76381;BMP280;65202;52.520;10.528;2023-06-19T07:35:38;100562.00;;;22.48
76381;BMP280;65202;52.520;10.528;2023-06-19T07:38:05;100559.59;;;22.19
76381;BMP280;65202;52.520;10.528;2023-06-19T07:40:32;100573.94;;;22.47
76381;BMP280;65202;52.520;10.528;2023-06-19T07:43:00;100568.78;;;22.55
76381;BMP280;65202;52.520;10.528;2023-06-19T07:45:27;100578.34;;;22.13
76381;BMP280;65202;52.520;10.528;2023-06-19T07:47:55;100572.38;;;22.12
76381;BMP280;65202;52.520;10.528;2023-06-19T07:50:23;100579.19;;;22.13
76381;BMP280;65202;52.520;10.528;2023-06-19T07:52:53;100579.31;;;21.88
76381;BMP280;65202;52.520;10.528;2023-06-19T07:55:21;100583.34;;;22.33
76381;BMP280;65202;52.520;10.528;2023-06-19T07:57:48;100573.88;;;22.53
76381;BMP280;65202;52.520;10.528;2023-06-19T08:00:15;100578.09;;;22.56
76381;BMP280;65202;52.520;10.528;2023-06-19T08:02:43;100569.44;;;22.78
76381;BMP280;65202;52.520;10.528;2023-06-19T08:05:10;100582.22;;;22.78
76381;BMP280;65202;52.520;10.528;2023-06-19T08:07:38;100571.81;;;22.98
76381;BMP280;65202;52.520;10.528;2023-06-19T08:10:06;100572.34;;;23.35
76381;BMP280;65202;52.520;10.528;2023-06-19T08:12:43;100576.50;;;23.45
76381;BMP280;65202;52.520;10.528;2023-06-19T08:15:12;100564.66;;;24.10
76381;BMP280;65202;52.520;10.528;2023-06-19T08:17:42;100564.72;;;24.04
76381;BMP280;65202;52.520;10.528;2023-06-19T08:20:10;100560.97;;;24.30
76381;BMP280;65202;52.520;10.528;2023-06-19T08:22:37;100562.94;;;24.12
76381;BMP280;65202;52.520;10.528;2023-06-19T08:25:05;100563.16;;;23.95
76381;BMP280;65202;52.520;10.528;2023-06-19T08:27:32;100559.50;;;24.14
76381;BMP280;65202;52.520;10.528;2023-06-19T08:29:59;100569.84;;;24.05
76381;BMP280;65202;52.520;10.528;2023-06-19T08:32:27;100561.84;;;24.27
76381;BMP280;65202;52.520;10.528;2023-06-19T08:34:54;100556.19;;;24.68
76381;BMP280;65202;52.520;10.528;2023-06-19T08:37:21;100551.47;;;24.93
76381;BMP280;65202;52.520;10.528;2023-06-19T08:39:49;100542.59;;;25.57
76381;BMP280;65202;52.520;10.528;2023-06-19T08:42:16;100537.59;;;26.31
76381;BMP280;65202;52.520;10.528;2023-06-19T08:44:43;100539.63;;;26.90
76381;BMP280;65202;52.520;10.528;2023-06-19T08:47:10;100532.31;;;27.08
76381;BMP280;65202;52.520;10.528;2023-06-19T08:49:39;100535.00;;;27.67
76381;BMP280;65202;52.520;10.528;2023-06-19T08:52:07;100538.16;;;28.33
76381;BMP280;65202;52.520;10.528;2023-06-19T08:54:34;100531.50;;;28.79
76381;BMP280;65202;52.520;10.528;2023-06-19T08:57:10;100526.13;;;28.86
76381;BMP280;65202;52.520;10.528;2023-06-19T08:59:39;100523.22;;;29.44
76381;BMP280;65202;52.520;10.528;2023-06-19T09:02:07;100521.66;;;29.63
76381;BMP280;65202;52.520;10.528;2023-06-19T09:04:35;100518.25;;;29.62
76381;BMP280;65202;52.520;10.528;2023-06-19T09:07:03;100527.06;;;29.80
76381;BMP280;65202;52.520;10.528;2023-06-19T09:09:31;100514.81;;;30.29
76381;BMP280;65202;52.520;10.528;2023-06-19T09:12:07;100518.81;;;30.78
76381;BMP280;65202;52.520;10.528;2023-06-19T09:14:43;100516.75;;;30.45
76381;BMP280;65202;52.520;10.528;2023-06-19T09:17:17;100514.34;;;30.19
76381;BMP280;65202;52.520;10.528;2023-06-19T09:19:47;100510.25;;;31.18
76381;BMP280;65202;52.520;10.528;2023-06-19T09:22:17;100507.88;;;30.52
76381;BMP280;65202;52.520;10.528;2023-06-19T09:24:45;100503.09;;;30.43
76381;BMP280;65202;52.520;10.528;2023-06-19T09:27:16;100508.63;;;30.11
76381;BMP280;65202;52.520;10.528;2023-06-19T09:29:49;100518.28;;;30.28
76381;BMP280;65202;52.520;10.528;2023-06-19T09:32:22;100506.41;;;30.66
76381;BMP280;65202;52.520;10.528;2023-06-19T09:34:52;100509.81;;;30.87
76381;BMP280;65202;52.520;10.528;2023-06-19T09:37:25;100494.41;;;31.25
76381;BMP280;65202;52.520;10.528;2023-06-19T09:40:04;100496.44;;;30.99
76381;BMP280;65202;52.520;10.528;2023-06-19T09:42:42;100491.75;;;31.07
76381;BMP280;65202;52.520;10.528;2023-06-19T09:45:12;100492.94;;;31.20
76381;BMP280;65202;52.520;10.528;2023-06-19T09:47:46;100491.53;;;31.31
76381;BMP280;65202;52.520;10.528;2023-06-19T09:50:17;100494.66;;;31.76
76381;BMP280;65202;52.520;10.528;2023-06-19T09:52:45;100486.69;;;31.80
76381;BMP280;65202;52.520;10.528;2023-06-19T09:55:12;100498.59;;;31.84
76381;BMP280;65202;52.520;10.528;2023-06-19T09:57:43;100483.00;;;31.49
76381;BMP280;65202;52.520;10.528;2023-06-19T10:00:12;100481.25;;;32.40
76381;BMP280;65202;52.520;10.528;2023-06-19T10:02:45;100493.34;;;31.29
76381;BMP280;65202;52.520;10.528;2023-06-19T10:05:13;100491.41;;;30.55
76381;BMP280;65202;52.520;10.528;2023-06-19T10:07:43;100488.13;;;30.91
76381;BMP280;65202;52.520;10.528;2023-06-19T10:10:26;100485.75;;;31.06
76381;BMP280;65202;52.520;10.528;2023-06-19T10:13:10;100483.69;;;30.53
76381;BMP280;65202;52.520;10.528;2023-06-19T10:15:42;100491.06;;;30.42
76381;BMP280;65202;52.520;10.528;2023-06-19T10:18:15;100501.47;;;30.18
76381;BMP280;65202;52.520;10.528;2023-06-19T10:20:44;100499.75;;;30.18
76381;BMP280;65202;52.520;10.528;2023-06-19T10:23:16;100498.78;;;29.77
76381;BMP280;65202;52.520;10.528;2023-06-19T10:25:47;100509.13;;;29.99
76381;BMP280;65202;52.520;10.528;2023-06-19T10:30:59;100507.31;;;30.01
76381;BMP280;65202;52.520;10.528;2023-06-19T10:33:30;100514.47;;;29.48
76381;BMP280;65202;52.520;10.528;2023-06-19T10:36:12;100507.81;;;29.65
76381;BMP280;65202;52.520;10.528;2023-06-19T10:38:41;100509.91;;;29.56
76381;BMP280;65202;52.520;10.528;2023-06-19T10:43:59;100513.56;;;29.26
76381;BMP280;65202;52.520;10.528;2023-06-19T10:46:32;100513.13;;;29.38
76381;BMP280;65202;52.520;10.528;2023-06-19T10:49:04;100514.13;;;29.58
76381;BMP280;65202;52.520;10.528;2023-06-19T10:51:37;100512.59;;;29.98
76381;BMP280;65202;52.520;10.528;2023-06-19T10:54:05;100512.25;;;29.85
76381;BMP280;65202;52.520;10.528;2023-06-19T10:56:33;100517.97;;;29.23
76381;BMP280;65202;52.520;10.528;2023-06-19T10:59:03;100522.69;;;29.36
76381;BMP280;65202;52.520;10.528;2023-06-19T11:01:40;100519.28;;;29.34
76381;BMP280;65202;52.520;10.528;2023-06-19T11:04:10;100522.94;;;29.04
76381;BMP280;65202;52.520;10.528;2023-06-19T11:06:40;100519.69;;;28.98
76381;BMP280;65202;52.520;10.528;2023-06-19T11:09:12;100521.50;;;28.96
76381;BMP280;65202;52.520;10.528;2023-06-19T11:11:42;100515.56;;;29.18
76381;BMP280;65202;52.520;10.528;2023-06-19T11:14:12;100512.97;;;29.65
76381;BMP280;65202;52.520;10.528;2023-06-19T11:16:42;100507.53;;;29.73
76381;BMP280;65202;52.520;10.528;2023-06-19T11:19:16;100509.97;;;29.30
76381;BMP280;65202;52.520;10.528;2023-06-19T11:21:50;100500.03;;;29.44
76381;BMP280;65202;52.520;10.528;2023-06-19T11:24:19;100500.09;;;29.18
76381;BMP280;65202;52.520;10.528;2023-06-19T11:26:50;100502.94;;;29.35
76381;BMP280;65202;52.520;10.528;2023-06-19T11:29:23;100501.59;;;29.48
76381;BMP280;65202;52.520;10.528;2023-06-19T11:32:15;100512.69;;;29.50
76381;BMP280;65202;52.520;10.528;2023-06-19T11:34:53;100504.94;;;29.96
76381;BMP280;65202;52.520;10.528;2023-06-19T11:37:20;100500.38;;;29.81
76381;BMP280;65202;52.520;10.528;2023-06-19T11:39:50;100491.97;;;29.76
76381;BMP280;65202;52.520;10.528;2023-06-19T11:42:19;100496.88;;;29.36
76381;BMP280;65202;52.520;10.528;2023-06-19T11:44:53;100494.66;;;29.50
76381;BMP280;65202;52.520;10.528;2023-06-19T11:47:22;100494.22;;;29.62
76381;BMP280;65202;52.520;10.528;2023-06-19T11:49:50;100498.13;;;29.25
76381;BMP280;65202;52.520;10.528;2023-06-19T11:52:17;100495.44;;;29.28
76381;BMP280;65202;52.520;10.528;2023-06-19T11:54:45;100500.34;;;29.35
76381;BMP280;65202;52.520;10.528;2023-06-19T11:57:12;100498.06;;;29.26
76381;BMP280;65202;52.520;10.528;2023-06-19T11:59:40;100504.03;;;29.28
76381;BMP280;65202;52.520;10.528;2023-06-19T12:02:09;100493.41;;;29.13
76381;BMP280;65202;52.520;10.528;2023-06-19T12:04:36;100498.66;;;29.34
76381;BMP280;65202;52.520;10.528;2023-06-19T12:07:04;100497.72;;;29.12
76381;BMP280;65202;52.520;10.528;2023-06-19T12:09:31;100486.53;;;29.13
76381;BMP280;65202;52.520;10.528;2023-06-19T12:11:58;100488.03;;;29.19
76381;BMP280;65202;52.520;10.528;2023-06-19T12:14:27;100495.19;;;29.35
76381;BMP280;65202;52.520;10.528;2023-06-19T12:16:54;100493.94;;;29.22
76381;BMP280;65202;52.520;10.528;2023-06-19T12:19:21;100494.94;;;29.18
76381;BMP280;65202;52.520;10.528;2023-06-19T12:21:49;100494.13;;;29.40
76381;BMP280;65202;52.520;10.528;2023-06-19T12:24:16;100494.88;;;29.44
76381;BMP280;65202;52.520;10.528;2023-06-19T12:26:43;100496.16;;;29.33
76381;BMP280;65202;52.520;10.528;2023-06-19T12:29:10;100502.16;;;29.33
76381;BMP280;65202;52.520;10.528;2023-06-19T12:31:38;100499.28;;;29.16
76381;BMP280;65202;52.520;10.528;2023-06-19T12:34:05;100498.13;;;29.00
76381;BMP280;65202;52.520;10.528;2023-06-19T12:36:51;100495.72;;;29.90
76381;BMP280;65202;52.520;10.528;2023-06-19T12:39:18;100497.41;;;29.91
76381;BMP280;65202;52.520;10.528;2023-06-19T12:41:46;100493.78;;;29.95
76381;BMP280;65202;52.520;10.528;2023-06-19T12:44:13;100508.66;;;29.19
76381;BMP280;65202;52.520;10.528;2023-06-19T12:46:41;100505.69;;;29.29
76381;BMP280;65202;52.520;10.528;2023-06-19T12:49:08;100499.50;;;29.80
76381;BMP280;65202;52.520;10.528;2023-06-19T12:51:35;100497.81;;;29.79
76381;BMP280;65202;52.520;10.528;2023-06-19T12:54:02;100504.50;;;29.85
76381;BMP280;65202;52.520;10.528;2023-06-19T12:56:30;100499.53;;;29.57
76381;BMP280;65202;52.520;10.528;2023-06-19T12:58:57;100496.66;;;29.65
76381;BMP280;65202;52.520;10.528;2023-06-19T13:01:24;100506.88;;;29.68
76381;BMP280;65202;52.520;10.528;2023-06-19T13:03:51;100513.72;;;29.46
76381;BMP280;65202;52.520;10.528;2023-06-19T13:06:19;100508.66;;;29.43
76381;BMP280;65202;52.520;10.528;2023-06-19T13:08:46;100511.88;;;29.01
76381;BMP280;65202;52.520;10.528;2023-06-19T13:11:13;100508.53;;;29.22
76381;BMP280;65202;52.520;10.528;2023-06-19T13:13:41;100509.16;;;29.52
76381;BMP280;65202;52.520;10.528;2023-06-19T13:16:08;100502.16;;;29.56
76381;BMP280;65202;52.520;10.528;2023-06-19T13:18:40;100512.22;;;29.63
76381;BMP280;65202;52.520;10.528;2023-06-19T13:21:07;100511.81;;;29.74
76381;BMP280;65202;52.520;10.528;2023-06-19T13:23:34;100523.75;;;29.29
76381;BMP280;65202;52.520;10.528;2023-06-19T13:26:02;100526.06;;;29.61
76381;BMP280;65202;52.520;10.528;2023-06-19T13:28:29;100513.88;;;29.64
76381;BMP280;65202;52.520;10.528;2023-06-19T13:30:56;100511.34;;;29.63
76381;BMP280;65202;52.520;10.528;2023-06-19T13:33:23;100507.38;;;29.77
76381;BMP280;65202;52.520;10.528;2023-06-19T13:35:50;100513.19;;;29.82
76381;BMP280;65202;52.520;10.528;2023-06-19T13:38:18;100510.69;;;29.81
76381;BMP280;65202;52.520;10.528;2023-06-19T13:40:45;100505.22;;;29.90
76381;BMP280;65202;52.520;10.528;2023-06-19T13:43:12;100510.78;;;29.78
76381;BMP280;65202;52.520;10.528;2023-06-19T13:45:40;100505.63;;;29.78
76381;BMP280;65202;52.520;10.528;2023-06-19T13:48:08;100508.34;;;29.52
76381;BMP280;65202;52.520;10.528;2023-06-19T13:50:36;100512.47;;;29.33
76381;BMP280;65202;52.520;10.528;2023-06-19T13:53:03;100506.53;;;29.54
76381;BMP280;65202;52.520;10.528;2023-06-19T13:55:30;100506.56;;;29.75
76381;BMP280;65202;52.520;10.528;2023-06-19T13:57:57;100505.81;;;29.96